createdAt,value
2022-08-22T00:00:35.348Z,73.73
2022-08-22T00:02:45.811Z,70.30
2022-08-22T00:02:49.790Z,70.98
2022-08-22T00:02:49.936Z,72.36
2022-08-22T00:02:54.635Z,70.50
2022-08-22T00:03:04.030Z,70.88
2022-08-22T00:03:25.428Z,73.68
2022-08-22T00:06:05.953Z,73.74
2022-08-22T00:08:42.736Z,73.58
2022-08-22T00:11:19.409Z,73.60
2022-08-22T00:14:01.516Z,73.35
2022-08-22T00:16:42.164Z,72.71
2022-08-22T00:19:25.190Z,72.86
2022-08-22T00:22:01.940Z,73.05
2022-08-22T00:24:35.518Z,73.22
2022-08-22T00:27:10.726Z,73.32
2022-08-22T00:29:43.707Z,73.54
2022-08-22T00:32:17.526Z,73.66
2022-08-22T00:34:55.446Z,73.63
2022-08-22T00:37:29.263Z,73.31
2022-08-22T00:40:04.058Z,73.09
2022-08-22T00:43:07.481Z,73.10
2022-08-22T00:45:59.920Z,73.20
2022-08-22T00:48:57.505Z,73.60
2022-08-22T00:52:00.624Z,73.38
2022-08-22T00:54:48.224Z,73.46
2022-08-22T00:57:40.363Z,73.48
2022-08-22T01:00:15.510Z,73.03
2022-08-22T01:03:16.644Z,73.00
2022-08-22T01:06:06.491Z,72.93
2022-08-22T01:08:55.305Z,73.08
2022-08-22T01:11:40.746Z,72.73
2022-08-22T01:14:35.403Z,72.95
2022-08-22T01:17:45.347Z,73.35
2022-08-22T01:20:52.422Z,73.56
2022-08-22T01:23:57.509Z,73.81
2022-08-22T01:27:07.946Z,73.08
2022-08-22T01:30:05.856Z,73.24
2022-08-22T01:33:13.431Z,73.48
2022-08-22T01:36:15.647Z,73.42
2022-08-22T01:39:04.191Z,73.14
2022-08-22T01:41:58.322Z,72.99
2022-08-22T01:44:50.244Z,73.04
2022-08-22T01:47:24.108Z,72.98
2022-08-22T01:49:57.196Z,72.99
2022-08-22T01:52:40.381Z,73.16
2022-08-22T01:55:13.374Z,73.02
2022-08-22T01:57:53.906Z,72.35
2022-08-22T02:00:35.460Z,72.29
2022-08-22T02:03:22.165Z,71.94
2022-08-22T02:06:01.155Z,72.07
2022-08-22T02:08:39.172Z,72.12
2022-08-22T02:11:10.569Z,71.86
2022-08-22T02:13:52.499Z,72.06
2022-08-22T02:16:27.889Z,71.49
2022-08-22T02:19:06.953Z,71.85
2022-08-22T02:21:46.116Z,71.79
2022-08-22T02:24:27.335Z,71.94
2022-08-22T02:27:11.452Z,71.44
2022-08-22T02:29:48.252Z,71.75
2022-08-22T02:32:23.511Z,71.91
2022-08-22T02:35:03.822Z,71.68
2022-08-22T02:37:37.821Z,71.56
2022-08-22T02:40:14.752Z,71.41
2022-08-22T02:42:49.699Z,71.50
2022-08-22T02:45:26.139Z,71.58
2022-08-22T02:48:03.737Z,71.89
2022-08-22T02:50:42.474Z,71.95
2022-08-22T02:53:16.551Z,71.93
2022-08-22T02:55:54.680Z,71.79
2022-08-22T02:58:38.629Z,71.66
2022-08-22T03:01:37.155Z,71.51
2022-08-22T03:04:24.646Z,71.60
2022-08-22T03:07:18.174Z,71.80
2022-08-22T03:09:52.812Z,71.93
2022-08-22T03:12:29.904Z,72.00
2022-08-22T03:15:07.449Z,72.36
2022-08-22T03:17:41.137Z,72.06
2022-08-22T03:20:15.882Z,72.38
2022-08-22T03:22:55.034Z,72.31
2022-08-22T03:25:31.883Z,72.28
2022-08-22T03:28:07.444Z,72.48
2022-08-22T03:30:41.540Z,72.40
2022-08-22T03:33:19.612Z,72.34
2022-08-22T03:36:01.592Z,72.51
2022-08-22T03:38:46.772Z,72.75
2022-08-22T03:41:55.093Z,72.98
2022-08-22T03:45:11.105Z,73.33
2022-08-22T03:48:15.834Z,73.72
2022-08-22T03:51:21.965Z,74.20
2022-08-22T03:54:15.423Z,74.18
2022-08-22T03:57:20.114Z,74.02
2022-08-22T04:00:18.482Z,73.69
2022-08-22T04:03:29.630Z,73.37
2022-08-22T04:06:30.765Z,72.98
2022-08-22T04:09:45.657Z,72.96
2022-08-22T04:12:48.863Z,73.11
2022-08-22T04:15:49.490Z,73.30
2022-08-22T04:18:35.347Z,73.81
2022-08-22T04:21:38.936Z,73.57
2022-08-22T04:24:52.210Z,71.35
2022-08-22T04:27:26.954Z,68.05
2022-08-22T04:30:03.173Z,66.21
2022-08-22T04:32:37.565Z,65.06
2022-08-22T04:35:11.882Z,63.20
2022-08-22T04:37:46.382Z,62.70
2022-08-22T04:40:23.728Z,61.41
2022-08-22T04:42:57.098Z,63.90
2022-08-22T04:45:33.771Z,65.85
2022-08-22T04:48:08.451Z,66.44
2022-08-22T04:50:43.259Z,66.83
2022-08-22T04:53:24.697Z,67.97
2022-08-22T04:56:07.496Z,68.24
2022-08-22T04:58:56.598Z,68.83
2022-08-22T05:01:27.081Z,68.56
2022-08-22T05:03:59.873Z,68.08
2022-08-22T05:06:31.401Z,67.51
2022-08-22T05:09:04.236Z,67.05
2022-08-22T05:11:35.104Z,66.76
2022-08-22T05:14:08.238Z,67.20
2022-08-22T05:16:41.764Z,67.81
2022-08-22T05:19:16.574Z,67.77
2022-08-22T05:21:50.073Z,67.59
2022-08-22T05:24:23.349Z,67.78
2022-08-22T05:27:02.882Z,67.52
2022-08-22T05:29:34.154Z,67.35
2022-08-22T05:32:04.848Z,67.66
2022-08-22T05:34:37.811Z,67.67
2022-08-22T05:37:13.265Z,67.67
2022-08-22T05:39:47.221Z,67.64
2022-08-22T05:42:19.761Z,67.32
2022-08-22T05:44:48.328Z,67.61
2022-08-22T05:47:23.346Z,67.72
2022-08-22T05:50:00.423Z,67.24
2022-08-22T05:52:43.608Z,67.14
2022-08-22T05:55:25.674Z,66.38
2022-08-22T05:58:22.219Z,66.09
2022-08-22T06:00:56.139Z,66.21
2022-08-22T06:03:29.629Z,66.64
2022-08-22T06:06:04.050Z,66.38
2022-08-22T06:08:40.113Z,66.09
2022-08-22T06:11:17.080Z,66.68
2022-08-22T06:13:53.142Z,66.82
2022-08-22T06:16:24.727Z,66.47
2022-08-22T06:18:54.072Z,66.67
2022-08-22T06:21:27.713Z,66.48
2022-08-22T06:24:00.041Z,66.53
2022-08-22T06:26:34.675Z,66.85
2022-08-22T06:29:03.877Z,67.09
2022-08-22T06:31:36.868Z,66.66
2022-08-22T06:34:10.814Z,65.80
2022-08-22T06:36:42.936Z,65.74
2022-08-22T06:39:20.469Z,65.48
2022-08-22T06:41:53.833Z,65.23
2022-08-22T06:44:27.595Z,64.87
2022-08-22T06:46:59.818Z,65.62
2022-08-22T06:49:29.535Z,65.97
2022-08-22T06:52:03.236Z,64.80
2022-08-22T06:54:38.035Z,64.43
2022-08-22T06:57:07.771Z,64.60
2022-08-22T06:59:39.472Z,64.33
2022-08-22T07:02:22.502Z,64.30
2022-08-22T07:04:52.286Z,64.41
2022-08-22T07:07:22.013Z,63.81
2022-08-22T07:09:55.608Z,62.83
2022-08-22T07:12:27.950Z,62.66
2022-08-22T07:15:00.783Z,62.47
2022-08-22T07:17:32.531Z,62.87
2022-08-22T07:20:07.364Z,61.83
2022-08-22T07:22:38.065Z,61.71
2022-08-22T07:25:11.096Z,61.48
2022-08-22T07:28:01.311Z,61.34
2022-08-22T07:30:47.091Z,61.17
2022-08-22T07:33:39.263Z,61.00
2022-08-22T07:36:23.715Z,60.01
2022-08-22T07:39:04.736Z,59.04
2022-08-22T07:41:45.875Z,57.98
2022-08-22T07:44:19.014Z,57.77
2022-08-22T07:46:56.713Z,57.08
2022-08-22T07:49:30.370Z,56.60
2022-08-22T07:52:02.926Z,56.42
2022-08-22T07:54:38.395Z,56.54
2022-08-22T07:57:12.736Z,56.56
2022-08-22T07:59:49.977Z,56.00
2022-08-22T08:02:22.137Z,55.64
2022-08-22T08:04:52.371Z,55.27
2022-08-22T08:07:24.363Z,55.19
2022-08-22T08:10:00.045Z,55.62
2022-08-22T08:12:35.319Z,55.32
2022-08-22T08:15:07.277Z,55.36
2022-08-22T08:17:38.087Z,55.81
2022-08-22T08:20:17.183Z,56.00
2022-08-22T08:22:47.903Z,55.54
2022-08-22T08:25:20.528Z,55.63
2022-08-22T08:28:14.628Z,55.93
2022-08-22T08:30:54.200Z,55.05
2022-08-22T08:33:26.762Z,55.01
2022-08-22T08:36:04.007Z,54.06
2022-08-22T08:38:37.624Z,53.52
2022-08-22T08:41:35.551Z,53.57
2022-08-22T08:44:19.669Z,53.88
2022-08-22T08:47:05.226Z,54.34
2022-08-22T08:50:09.580Z,54.09
2022-08-22T08:53:15.539Z,54.03
2022-08-22T08:55:52.992Z,53.99
2022-08-22T08:58:41.001Z,54.24
2022-08-22T09:01:40.370Z,53.47
2022-08-22T09:04:25.780Z,52.91
2022-08-22T09:07:25.056Z,52.44
2022-08-22T09:10:30.200Z,52.01
2022-08-22T09:13:34.599Z,51.18
2022-08-22T09:16:32.027Z,51.30
2022-08-22T09:19:44.832Z,50.64
2022-08-22T09:22:50.069Z,51.29
2022-08-22T09:25:38.541Z,51.21
2022-08-22T09:28:15.937Z,51.31
2022-08-22T09:30:58.294Z,50.81
2022-08-22T09:33:36.435Z,50.88
2022-08-22T09:36:12.404Z,50.86
2022-08-22T09:38:55.397Z,50.96
2022-08-22T09:41:41.467Z,50.76
2022-08-22T09:44:20.370Z,50.98
2022-08-22T09:46:59.360Z,50.36
2022-08-22T09:49:44.811Z,50.16
2022-08-22T09:52:35.725Z,49.63
2022-08-22T09:55:16.278Z,50.14
2022-08-22T09:57:52.845Z,49.75
2022-08-22T10:00:25.778Z,49.63
2022-08-22T10:03:12.819Z,49.78
2022-08-22T10:05:47.070Z,49.95
2022-08-22T10:08:34.815Z,50.26
2022-08-22T10:11:23.786Z,51.08
2022-08-22T10:14:02.960Z,51.41
2022-08-22T10:16:50.404Z,50.84
2022-08-22T10:19:26.242Z,50.34
2022-08-22T10:22:20.502Z,49.75
2022-08-22T10:24:58.777Z,49.92
2022-08-22T10:27:50.153Z,49.63
2022-08-22T10:30:23.058Z,50.10
2022-08-22T10:32:59.650Z,50.32
2022-08-22T10:35:33.889Z,49.58
2022-08-22T10:38:12.368Z,49.41
2022-08-22T10:40:49.438Z,49.63
2022-08-22T10:43:28.743Z,49.06
2022-08-22T10:46:04.187Z,49.31
2022-08-22T10:48:43.808Z,49.04
2022-08-22T10:51:25.587Z,49.16
2022-08-22T10:54:14.730Z,49.50
2022-08-22T10:56:56.573Z,49.70
2022-08-22T10:59:45.976Z,49.91
2022-08-22T11:02:31.694Z,48.94
2022-08-22T11:05:23.709Z,47.53
2022-08-22T11:08:04.369Z,47.28
2022-08-22T11:10:59.562Z,47.06
2022-08-22T11:13:35.181Z,46.98
2022-08-22T11:16:15.424Z,46.12
2022-08-22T11:19:14.996Z,46.00
2022-08-22T11:22:04.585Z,46.29
2022-08-22T11:25:11.228Z,45.38
2022-08-22T11:28:06.257Z,45.37
2022-08-22T11:30:44.921Z,45.05
2022-08-22T11:33:47.454Z,45.76
2022-08-22T11:36:31.166Z,45.27
2022-08-22T11:39:18.384Z,45.02
2022-08-22T11:41:59.524Z,45.04
2022-08-22T11:44:34.470Z,45.00
2022-08-22T11:47:09.435Z,45.22
2022-08-22T11:49:54.259Z,45.05
2022-08-22T11:52:51.894Z,45.40
2022-08-22T11:55:32.992Z,45.32
2022-08-22T11:58:28.695Z,45.62
2022-08-22T12:01:04.025Z,46.02
2022-08-22T12:03:58.887Z,46.17
2022-08-22T12:06:49.861Z,46.05
2022-08-22T12:09:31.862Z,48.07
2022-08-22T12:12:26.508Z,50.04
2022-08-22T12:15:04.535Z,51.04
2022-08-22T12:18:01.467Z,51.65
2022-08-22T12:20:56.282Z,51.51
2022-08-22T12:24:06.252Z,51.55
2022-08-22T12:26:54.761Z,51.42
2022-08-22T12:29:45.023Z,51.33
2022-08-22T12:32:49.221Z,50.82
2022-08-22T12:35:30.635Z,51.95
2022-08-22T12:38:28.133Z,52.76
2022-08-22T12:41:35.723Z,52.91
2022-08-22T12:44:23.382Z,52.86
2022-08-22T12:47:09.239Z,53.07
2022-08-22T12:49:57.664Z,54.06
2022-08-22T12:52:44.612Z,55.37
2022-08-22T12:55:28.330Z,54.70
2022-08-22T12:58:07.038Z,55.08
2022-08-22T13:00:41.921Z,55.93
2022-08-22T13:03:22.834Z,56.49
2022-08-22T13:05:57.085Z,55.35
2022-08-22T13:08:32.087Z,55.40
2022-08-22T13:11:10.030Z,55.19
2022-08-22T13:13:56.057Z,55.53
2022-08-22T13:16:40.370Z,55.44
2022-08-22T13:19:21.499Z,55.24
2022-08-22T13:21:58.161Z,55.81
2022-08-22T13:24:52.487Z,55.74
2022-08-22T13:27:27.030Z,55.93
2022-08-22T13:30:01.222Z,55.03
2022-08-22T13:32:36.672Z,55.29
2022-08-22T13:35:10.463Z,55.66
2022-08-22T13:37:45.719Z,56.25
2022-08-22T13:40:27.677Z,52.80
2022-08-22T13:43:05.687Z,51.92
2022-08-22T13:45:36.397Z,51.50
2022-08-22T13:48:11.404Z,51.28
2022-08-22T13:50:56.931Z,50.64
2022-08-22T13:53:35.775Z,51.73
2022-08-22T13:56:15.436Z,57.57
2022-08-22T13:58:48.403Z,60.81
2022-08-22T14:01:29.281Z,62.80
2022-08-22T14:04:05.616Z,62.99
2022-08-22T14:06:59.092Z,64.16
2022-08-22T14:09:38.273Z,65.26
2022-08-22T14:12:12.623Z,65.41
2022-08-22T14:14:46.012Z,66.00
2022-08-22T14:17:24.102Z,67.63
2022-08-22T14:20:01.613Z,69.14
2022-08-22T14:22:35.679Z,69.27
2022-08-22T14:25:09.214Z,70.24
2022-08-22T14:27:43.902Z,72.60
2022-08-22T14:30:19.077Z,74.27
2022-08-22T14:32:51.885Z,74.50
2022-08-22T14:35:33.627Z,74.33
2022-08-22T14:38:18.121Z,74.09
2022-08-22T14:40:48.435Z,73.74
2022-08-22T14:43:22.984Z,73.44
2022-08-22T14:46:01.994Z,73.88
2022-08-22T14:48:40.643Z,73.99
2022-08-22T14:51:21.210Z,74.14
2022-08-22T14:53:51.422Z,73.46
2022-08-22T14:56:23.935Z,73.20
2022-08-22T14:58:58.143Z,72.38
2022-08-22T15:01:29.910Z,72.95
2022-08-22T15:04:05.081Z,72.67
2022-08-22T15:06:38.241Z,71.85
2022-08-22T15:09:29.456Z,70.69
2022-08-22T15:12:01.737Z,70.10
2022-08-22T15:14:45.486Z,69.74
2022-08-22T15:17:35.561Z,69.58
2022-08-22T15:20:22.782Z,69.13
2022-08-22T15:23:01.917Z,68.36
2022-08-22T15:25:34.529Z,68.49
2022-08-22T15:28:13.054Z,67.22
2022-08-22T15:30:45.823Z,66.73
2022-08-22T15:33:22.501Z,66.37
2022-08-22T15:35:53.419Z,66.10
2022-08-22T15:38:30.197Z,66.20
2022-08-22T15:41:31.221Z,66.21
2022-08-22T15:44:14.847Z,66.42
2022-08-22T15:47:02.151Z,67.28
2022-08-22T15:49:32.964Z,67.44
2022-08-22T15:52:22.936Z,67.54
2022-08-22T15:55:28.792Z,67.57
2022-08-22T15:58:06.613Z,67.98
2022-08-22T16:00:45.129Z,67.38
2022-08-22T16:03:26.817Z,66.89
2022-08-22T16:05:58.961Z,66.25
2022-08-22T16:08:33.102Z,65.31
2022-08-22T16:11:22.333Z,64.61
2022-08-22T16:14:24.158Z,64.70
2022-08-22T16:17:02.234Z,64.49
2022-08-22T16:19:34.337Z,64.92
2022-08-22T16:22:09.708Z,65.16
2022-08-22T16:25:10.411Z,65.43
2022-08-22T16:27:53.041Z,67.12
2022-08-22T16:30:34.747Z,68.39
2022-08-22T16:33:04.558Z,69.62
2022-08-22T16:36:27.028Z,71.39
2022-08-22T16:38:58.749Z,73.18
2022-08-22T16:41:30.939Z,73.72
2022-08-22T16:44:30.675Z,74.14
2022-08-22T16:47:14.321Z,74.42
2022-08-22T16:49:57.507Z,73.55
2022-08-22T16:52:54.396Z,73.77
2022-08-22T16:55:49.195Z,73.42
2022-08-22T16:59:09.844Z,73.60
2022-08-22T17:02:11.346Z,72.02
2022-08-22T17:04:51.754Z,71.89
2022-08-22T17:07:35.342Z,72.51
2022-08-22T17:10:28.329Z,73.28
2022-08-22T17:13:14.704Z,72.39
2022-08-22T17:15:58.028Z,72.16
2022-08-22T17:18:44.656Z,71.76
2022-08-22T17:21:26.063Z,71.41
2022-08-22T17:24:03.126Z,71.33
2022-08-22T17:27:36.486Z,70.94
2022-08-22T17:30:10.354Z,70.57
2022-08-22T17:32:59.907Z,71.08
2022-08-22T17:35:43.757Z,71.21
2022-08-22T17:38:24.390Z,71.66
2022-08-22T17:41:04.155Z,72.39
2022-08-22T17:43:57.351Z,72.29
2022-08-22T17:46:36.913Z,71.82
2022-08-22T17:49:17.418Z,72.76
2022-08-22T17:51:51.866Z,72.50
2022-08-22T17:54:29.496Z,72.36
2022-08-22T17:57:06.330Z,72.67
2022-08-22T17:59:46.605Z,72.49
2022-08-22T18:02:18.967Z,72.62
2022-08-22T18:04:58.896Z,72.74
2022-08-22T18:07:39.547Z,74.31
2022-08-22T18:10:21.565Z,75.29
2022-08-22T18:13:06.309Z,75.23
2022-08-22T18:15:44.425Z,75.14
2022-08-22T18:18:28.232Z,74.84
2022-08-22T18:21:04.441Z,75.22
2022-08-22T18:23:41.391Z,75.88
2022-08-22T18:26:24.382Z,76.08
2022-08-22T18:32:22.328Z,75.55
2022-08-22T18:35:07.562Z,76.88
2022-08-22T18:37:55.041Z,76.36
2022-08-22T18:41:12.516Z,75.00
2022-08-22T18:44:12.766Z,74.40
2022-08-22T18:46:50.963Z,74.13
2022-08-22T18:49:48.444Z,74.19
2022-08-22T18:52:21.837Z,74.14
2022-08-22T18:55:11.362Z,73.19
2022-08-22T18:58:04.758Z,73.37
2022-08-22T19:00:59.518Z,73.08
2022-08-22T19:03:46.334Z,72.79
2022-08-22T19:06:33.463Z,72.52
2022-08-22T19:09:32.973Z,72.14
2022-08-22T19:12:12.616Z,72.23
2022-08-22T19:15:12.544Z,72.48
2022-08-22T19:18:08.122Z,71.82
2022-08-22T19:20:55.928Z,70.76
2022-08-22T19:23:49.519Z,70.28
2022-08-22T19:26:42.383Z,69.51
2022-08-22T19:29:47.692Z,69.79
2022-08-22T19:32:50.045Z,70.16
2022-08-22T19:35:24.745Z,70.43
2022-08-22T19:37:54.840Z,70.05
2022-08-22T19:40:58.468Z,70.14
2022-08-22T19:43:34.639Z,69.77
2022-08-22T19:46:07.645Z,70.35
2022-08-22T19:48:45.760Z,70.61
2022-08-22T19:51:29.468Z,70.66
2022-08-22T19:54:18.164Z,70.99
2022-08-22T19:57:02.796Z,71.03
2022-08-22T19:59:50.421Z,71.41
2022-08-22T20:02:32.361Z,71.37
2022-08-22T20:05:14.518Z,71.94
2022-08-22T20:08:05.494Z,72.22
2022-08-22T20:10:48.056Z,72.50
2022-08-22T20:13:22.979Z,73.27
2022-08-22T20:16:19.845Z,73.65
2022-08-22T20:19:18.389Z,74.09
2022-08-22T20:21:58.997Z,75.08
2022-08-22T20:24:40.235Z,75.63
2022-08-22T20:27:15.310Z,76.14
2022-08-22T20:29:49.536Z,76.52
2022-08-22T20:32:21.306Z,76.61
2022-08-22T20:34:57.063Z,75.68
2022-08-22T20:37:56.152Z,76.10
2022-08-22T20:40:56.542Z,75.89
2022-08-22T20:43:25.342Z,75.37
2022-08-22T20:46:07.399Z,75.63
2022-08-22T20:48:44.665Z,75.39
2022-08-22T20:51:17.473Z,75.25
2022-08-22T20:53:52.529Z,75.07
2022-08-22T20:56:33.940Z,74.52
2022-08-22T20:59:13.756Z,74.41
2022-08-22T21:01:42.077Z,74.02
2022-08-22T21:04:11.021Z,74.42
2022-08-22T21:06:39.331Z,74.21
2022-08-22T21:09:44.311Z,73.58
2022-08-22T21:12:14.389Z,73.93
2022-08-22T21:14:48.135Z,74.16
2022-08-22T21:17:26.186Z,74.05
2022-08-22T21:20:04.683Z,73.94
2022-08-22T21:22:34.269Z,74.33
2022-08-22T21:25:03.227Z,74.41
2022-08-22T21:27:37.776Z,75.20
2022-08-22T21:30:09.380Z,75.40
2022-08-22T21:32:41.848Z,75.65
2022-08-22T21:35:32.582Z,75.63
2022-08-22T21:41:39.075Z,75.09
2022-08-22T21:44:40.354Z,75.26
2022-08-22T21:47:38.873Z,74.98
2022-08-22T21:50:15.616Z,75.03
2022-08-22T21:52:46.033Z,75.19
2022-08-22T21:55:17.305Z,75.01
2022-08-22T21:57:45.990Z,74.85
2022-08-22T22:00:49.362Z,75.05
2022-08-22T22:03:20.486Z,75.13
2022-08-22T22:05:50.260Z,75.27
2022-08-22T22:08:18.958Z,75.15
2022-08-22T22:10:49.623Z,74.78
2022-08-22T22:13:20.276Z,74.96
2022-08-22T22:15:54.280Z,74.72
2022-08-22T22:18:25.622Z,74.61
2022-08-22T22:20:56.404Z,75.21
2022-08-22T22:23:26.368Z,75.19
2022-08-22T22:25:55.686Z,75.08
2022-08-22T22:28:29.454Z,74.69
2022-08-22T22:30:59.186Z,74.74
2022-08-22T22:33:30.144Z,75.10
2022-08-22T22:36:01.083Z,74.91
2022-08-22T22:38:29.323Z,75.27
2022-08-22T22:40:58.287Z,75.08
2022-08-22T22:43:27.676Z,75.10
2022-08-22T22:45:56.463Z,74.75
2022-08-22T22:48:26.253Z,74.56
2022-08-22T22:50:54.777Z,74.52
2022-08-22T22:53:28.589Z,75.24
2022-08-22T22:56:11.803Z,75.32
2022-08-22T22:58:40.470Z,75.54
2022-08-22T23:01:10.345Z,75.78
2022-08-22T23:03:40.115Z,75.82
2022-08-22T23:06:12.570Z,76.06
2022-08-22T23:08:40.959Z,75.95
2022-08-22T23:11:12.688Z,75.56
2022-08-22T23:13:44.827Z,75.36
2022-08-22T23:16:16.289Z,74.79
2022-08-22T23:18:46.270Z,74.66
2022-08-22T23:21:18.401Z,74.40
2022-08-22T23:23:48.081Z,74.11
2022-08-22T23:26:17.572Z,74.04
2022-08-22T23:28:45.744Z,74.01
2022-08-22T23:31:17.802Z,74.23
2022-08-22T23:33:47.771Z,74.49
2022-08-22T23:36:18.798Z,74.16
2022-08-22T23:38:47.726Z,74.42
2022-08-22T23:41:17.811Z,74.41
2022-08-22T23:43:48.023Z,74.35
2022-08-22T23:46:18.326Z,74.45
2022-08-22T23:48:49.287Z,74.85
2022-08-22T23:51:23.125Z,75.12
2022-08-22T23:53:52.050Z,75.08
2022-08-22T23:56:24.080Z,75.20
2022-08-22T23:58:53.289Z,75.21
